ΕΜΥ, Εθνική Μετεωρολογική Υπηρεσία - Δελτία Καιρού, Προγνώσεις

ΑΕΡΟΝΑΥΤΙΛΙΑ

GREEK AIRPORTS CODES

LGSY 090150Z AUTO 03013KT 340V040 //// // ////// 22/16 Q1015 RE//=

EUROPEAN AIRPORTS CODES

LKPR 090200Z 18004KT 7000 FEW001 13/12 Q1018 NOSIG=